メインページ
METAR-TAF:

METAR-TAF

空港 :

アカプルコ, メキシコ

アカプルコ国際空港

緯度: 16-46N, 経度: 099-45W, 海抜: 5m

現時点の気象観測

当レポートは1時間23分前の20:46(UTC)に作成
西の風 10kt
気温 30°C
湿度 62%
気圧 1010 hPa
視程: 12.9km
晴天

METAR: MMAA 192046Z 26010KT 8SM SKC 30/22 A2983 RMK SLP099 57026 959 HZY CU NE

時間: 16:09 (22:09 UTC)

予報

当レポートは5時間36分前の16:33(UTC)に作成
予報は19日の 18時(UTC)から 20日の 24時(UTC)まで有効
西/南西の風 10kt
視程: 10km
高度2000ftの雲は散在している
高度8000ftの千切れ雲あり
20日の 0100時(UTC)から
北/北西の風 5kt
視程: 10km
高度8000ftの雲は散在している
高度25000ftの千切れ雲あり
20日の 1800時(UTC)から
西/南西の風 10kt
視程: 10km
高度10000ftの雲は散在している

TAF: MMAA 191633Z 1918/2024 24010KT P6SM SCT020 BKN080 TX30/1920Z TN23/2012Z FM200100 34005KT P6SM SCT080 BKN250 FM201800 24010KT P6SM SCT100

4,000以上の空港の気象観測と天気予報(METAR報とTAF報)

利用可能な観測所は地図上に黄色い丸と赤い丸で示す。

丸の上にカーソルを重ねると観測所名を参照できる。

次にクリックすると気象観測と天気予報を参照できる。

マップの切り替え:黒色「×」印の緑ボタンをクリックして拡大、「-」印の緑ボタンをクリックして縮小、緑色の三角印をクリックして隣りの地図に切り替え


METAR-TAF: